<?xml version="1.0" encoding="UTF-8" standalone="no" ?><gpx xmlns="http://www.topografix.com/GPX/1/1" xmlns:gpxx="http://www.garmin.com/xmlschemas/GpxExtensions/v3" xmlns:wptx1="http://www.garmin.com/xmlschemas/WaypointExtension/v1" xmlns:gpxtpx="http://www.garmin.com/xmlschemas/TrackPointExtension/v1" creator="GuideVTT.com" version="1.1" xmlns:xsi="http://www.w3.org/2001/XMLSchema-instance" xsi:schemaLocation="http://www.topografix.com/GPX/1/1 http://www.topografix.com/GPX/1/1/gpx.xsd http://www.garmin.com/xmlschemas/GpxExtensions/v3 http://www8.garmin.com/xmlschemas/GpxExtensionsv3.xsd http://www.garmin.com/xmlschemas/WaypointExtension/v1 http://www8.garmin.com/xmlschemas/WaypointExtensionv1.xsd http://www.garmin.com/xmlschemas/TrackPointExtension/v1 http://www.garmin.com/xmlschemas/TrackPointExtensionv1.xsd">
<metadata><link href="http://www.garmin.com"><text>Garmin International</text></link><time>2013-06-22T15:13:50Z</time></metadata>
<trk><name>17nov07.gpx</name><extensions><gpxx:TrackExtension><gpxx:DisplayColor>Cyan</gpxx:DisplayColor></gpxx:TrackExtension></extensions><trkseg>
<trkpt lat="43.16308300" lon="0.27883300"><ele></ele><time>2014-8-8T9:13:9Z</time></trkpt>
<trkpt lat="43.16335000" lon="0.27886700"><ele></ele><time>2014-8-8T9:13:12Z</time></trkpt>
<trkpt lat="43.16365000" lon="0.27941700"><ele></ele><time>2014-8-8T9:13:15Z</time></trkpt>
<trkpt lat="43.16411700" lon="0.28053300"><ele></ele><time>2014-8-8T9:13:18Z</time></trkpt>
<trkpt lat="43.16431700" lon="0.28088300"><ele></ele><time>2014-8-8T9:13:21Z</time></trkpt>
<trkpt lat="43.16483300" lon="0.28138300"><ele></ele><time>2014-8-8T9:13:24Z</time></trkpt>
<trkpt lat="43.16501700" lon="0.28173300"><ele></ele><time>2014-8-8T9:13:27Z</time></trkpt>
<trkpt lat="43.16541700" lon="0.28305000"><ele></ele><time>2014-8-8T9:13:30Z</time></trkpt>
<trkpt lat="43.16558300" lon="0.28353300"><ele></ele><time>2014-8-8T9:13:33Z</time></trkpt>
<trkpt lat="43.16578300" lon="0.28515000"><ele></ele><time>2014-8-8T9:13:36Z</time></trkpt>
<trkpt lat="43.16585000" lon="0.28561700"><ele></ele><time>2014-8-8T9:13:39Z</time></trkpt>
<trkpt lat="43.16586700" lon="0.28623300"><ele></ele><time>2014-8-8T9:13:42Z</time></trkpt>
<trkpt lat="43.16586700" lon="0.28655000"><ele></ele><time>2014-8-8T9:13:45Z</time></trkpt>
<trkpt lat="43.16588300" lon="0.28721700"><ele></ele><time>2014-8-8T9:13:48Z</time></trkpt>
<trkpt lat="43.16595000" lon="0.28801700"><ele></ele><time>2014-8-8T9:13:51Z</time></trkpt>
<trkpt lat="43.16601700" lon="0.28856700"><ele></ele><time>2014-8-8T9:13:54Z</time></trkpt>
<trkpt lat="43.16620000" lon="0.28961700"><ele></ele><time>2014-8-8T9:13:57Z</time></trkpt>
<trkpt lat="43.16618300" lon="0.29033300"><ele></ele><time>2014-8-8T9:14:0Z</time></trkpt>
<trkpt lat="43.16626700" lon="0.29065000"><ele></ele><time>2014-8-8T9:14:3Z</time></trkpt>
<trkpt lat="43.16641700" lon="0.29095000"><ele></ele><time>2014-8-8T9:14:6Z</time></trkpt>
<trkpt lat="43.16645000" lon="0.29346700"><ele></ele><time>2014-8-8T9:14:9Z</time></trkpt>
<trkpt lat="43.16658300" lon="0.29428300"><ele></ele><time>2014-8-8T9:14:12Z</time></trkpt>
<trkpt lat="43.16661700" lon="0.29560000"><ele></ele><time>2014-8-8T9:14:15Z</time></trkpt>
<trkpt lat="43.16696700" lon="0.29638300"><ele></ele><time>2014-8-8T9:14:18Z</time></trkpt>
<trkpt lat="43.16718300" lon="0.29678300"><ele></ele><time>2014-8-8T9:14:21Z</time></trkpt>
<trkpt lat="43.16736700" lon="0.29723300"><ele></ele><time>2014-8-8T9:14:24Z</time></trkpt>
<trkpt lat="43.16753300" lon="0.29750000"><ele></ele><time>2014-8-8T9:14:27Z</time></trkpt>
<trkpt lat="43.16756700" lon="0.29780000"><ele></ele><time>2014-8-8T9:14:30Z</time></trkpt>
<trkpt lat="43.16773300" lon="0.29848300"><ele></ele><time>2014-8-8T9:14:33Z</time></trkpt>
<trkpt lat="43.16791700" lon="0.29888300"><ele></ele><time>2014-8-8T9:14:36Z</time></trkpt>
<trkpt lat="43.16796700" lon="0.29916700"><ele></ele><time>2014-8-8T9:14:39Z</time></trkpt>
<trkpt lat="43.16805000" lon="0.29941700"><ele></ele><time>2014-8-8T9:14:42Z</time></trkpt>
<trkpt lat="43.16820000" lon="0.29986700"><ele></ele><time>2014-8-8T9:14:45Z</time></trkpt>
<trkpt lat="43.16825000" lon="0.30010000"><ele></ele><time>2014-8-8T9:14:48Z</time></trkpt>
<trkpt lat="43.16826700" lon="0.30028300"><ele></ele><time>2014-8-8T9:14:51Z</time></trkpt>
<trkpt lat="43.16840000" lon="0.30033300"><ele></ele><time>2014-8-8T9:14:54Z</time></trkpt>
<trkpt lat="43.16850000" lon="0.30065000"><ele></ele><time>2014-8-8T9:14:57Z</time></trkpt>
<trkpt lat="43.16855000" lon="0.30101700"><ele></ele><time>2014-8-8T9:15:0Z</time></trkpt>
<trkpt lat="43.16878300" lon="0.30143300"><ele></ele><time>2014-8-8T9:15:3Z</time></trkpt>
<trkpt lat="43.16893300" lon="0.30138300"><ele></ele><time>2014-8-8T9:15:6Z</time></trkpt>
<trkpt lat="43.16903300" lon="0.30156700"><ele></ele><time>2014-8-8T9:15:9Z</time></trkpt>
<trkpt lat="43.16915000" lon="0.30148300"><ele></ele><time>2014-8-8T9:15:12Z</time></trkpt>
<trkpt lat="43.16930000" lon="0.30081700"><ele></ele><time>2014-8-8T9:15:15Z</time></trkpt>
<trkpt lat="43.16935000" lon="0.30036700"><ele></ele><time>2014-8-8T9:15:18Z</time></trkpt>
<trkpt lat="43.16951700" lon="0.29975000"><ele></ele><time>2014-8-8T9:15:21Z</time></trkpt>
<trkpt lat="43.16966700" lon="0.29990000"><ele></ele><time>2014-8-8T9:15:24Z</time></trkpt>
<trkpt lat="43.16973300" lon="0.30008300"><ele></ele><time>2014-8-8T9:15:27Z</time></trkpt>
<trkpt lat="43.16983300" lon="0.30035000"><ele></ele><time>2014-8-8T9:15:30Z</time></trkpt>
<trkpt lat="43.16996700" lon="0.30081700"><ele></ele><time>2014-8-8T9:15:33Z</time></trkpt>
<trkpt lat="43.17010000" lon="0.30110000"><ele></ele><time>2014-8-8T9:15:36Z</time></trkpt>
<trkpt lat="43.17021700" lon="0.30138300"><ele></ele><time>2014-8-8T9:15:39Z</time></trkpt>
<trkpt lat="43.17035000" lon="0.30146700"><ele></ele><time>2014-8-8T9:15:42Z</time></trkpt>
<trkpt lat="43.17046700" lon="0.30131700"><ele></ele><time>2014-8-8T9:15:45Z</time></trkpt>
<trkpt lat="43.17056700" lon="0.30115000"><ele></ele><time>2014-8-8T9:15:48Z</time></trkpt>
<trkpt lat="43.17071700" lon="0.30100000"><ele></ele><time>2014-8-8T9:15:51Z</time></trkpt>
<trkpt lat="43.17098300" lon="0.30098300"><ele></ele><time>2014-8-8T9:15:54Z</time></trkpt>
<trkpt lat="43.17231700" lon="0.30133300"><ele></ele><time>2014-8-8T9:15:57Z</time></trkpt>
<trkpt lat="43.17245000" lon="0.30178300"><ele></ele><time>2014-8-8T9:16:0Z</time></trkpt>
<trkpt lat="43.17248300" lon="0.30218300"><ele></ele><time>2014-8-8T9:16:3Z</time></trkpt>
<trkpt lat="43.17295000" lon="0.30286700"><ele></ele><time>2014-8-8T9:16:6Z</time></trkpt>
<trkpt lat="43.17311700" lon="0.30341700"><ele></ele><time>2014-8-8T9:16:9Z</time></trkpt>
<trkpt lat="43.17321700" lon="0.30385000"><ele></ele><time>2014-8-8T9:16:12Z</time></trkpt>
<trkpt lat="43.17335000" lon="0.30413300"><ele></ele><time>2014-8-8T9:16:15Z</time></trkpt>
<trkpt lat="43.17365000" lon="0.30460000"><ele></ele><time>2014-8-8T9:16:18Z</time></trkpt>
<trkpt lat="43.17435000" lon="0.30523300"><ele></ele><time>2014-8-8T9:16:21Z</time></trkpt>
<trkpt lat="43.17528300" lon="0.30678300"><ele></ele><time>2014-8-8T9:16:24Z</time></trkpt>
<trkpt lat="43.17568300" lon="0.30718300"><ele></ele><time>2014-8-8T9:16:27Z</time></trkpt>
<trkpt lat="43.17606700" lon="0.30890000"><ele></ele><time>2014-8-8T9:16:30Z</time></trkpt>
<trkpt lat="43.17675000" lon="0.30855000"><ele></ele><time>2014-8-8T9:16:33Z</time></trkpt>
<trkpt lat="43.17871700" lon="0.30791700"><ele></ele><time>2014-8-8T9:16:36Z</time></trkpt>
<trkpt lat="43.17886700" lon="0.30836700"><ele></ele><time>2014-8-8T9:16:39Z</time></trkpt>
<trkpt lat="43.17908300" lon="0.30911700"><ele></ele><time>2014-8-8T9:16:42Z</time></trkpt>
<trkpt lat="43.17933300" lon="0.30931700"><ele></ele><time>2014-8-8T9:16:45Z</time></trkpt>
<trkpt lat="43.17978300" lon="0.30930000"><ele></ele><time>2014-8-8T9:16:48Z</time></trkpt>
<trkpt lat="43.18118300" lon="0.30931700"><ele></ele><time>2014-8-8T9:16:51Z</time></trkpt>
<trkpt lat="43.18221700" lon="0.31023300"><ele></ele><time>2014-8-8T9:16:54Z</time></trkpt>
<trkpt lat="43.18326700" lon="0.31088300"><ele></ele><time>2014-8-8T9:16:57Z</time></trkpt>
<trkpt lat="43.18390000" lon="0.31100000"><ele></ele><time>2014-8-8T9:17:0Z</time></trkpt>
<trkpt lat="43.18611700" lon="0.31091700"><ele></ele><time>2014-8-8T9:17:3Z</time></trkpt>
<trkpt lat="43.18620000" lon="0.31116700"><ele></ele><time>2014-8-8T9:17:6Z</time></trkpt>
<trkpt lat="43.18630000" lon="0.31155000"><ele></ele><time>2014-8-8T9:17:9Z</time></trkpt>
<trkpt lat="43.18598300" lon="0.31275000"><ele></ele><time>2014-8-8T9:17:12Z</time></trkpt>
<trkpt lat="43.18593300" lon="0.31313300"><ele></ele><time>2014-8-8T9:17:15Z</time></trkpt>
<trkpt lat="43.18626700" lon="0.31333300"><ele></ele><time>2014-8-8T9:17:18Z</time></trkpt>
<trkpt lat="43.18650000" lon="0.31381700"><ele></ele><time>2014-8-8T9:17:21Z</time></trkpt>
<trkpt lat="43.18660000" lon="0.31485000"><ele></ele><time>2014-8-8T9:17:24Z</time></trkpt>
<trkpt lat="43.18711700" lon="0.31555000"><ele></ele><time>2014-8-8T9:17:27Z</time></trkpt>
<trkpt lat="43.18713300" lon="0.31590000"><ele></ele><time>2014-8-8T9:17:30Z</time></trkpt>
<trkpt lat="43.18710000" lon="0.31628300"><ele></ele><time>2014-8-8T9:17:33Z</time></trkpt>
<trkpt lat="43.18720000" lon="0.31646700"><ele></ele><time>2014-8-8T9:17:36Z</time></trkpt>
<trkpt lat="43.18713300" lon="0.31670000"><ele></ele><time>2014-8-8T9:17:39Z</time></trkpt>
<trkpt lat="43.18700000" lon="0.31691700"><ele></ele><time>2014-8-8T9:17:42Z</time></trkpt>
<trkpt lat="43.18696700" lon="0.31780000"><ele></ele><time>2014-8-8T9:17:45Z</time></trkpt>
<trkpt lat="43.18710000" lon="0.31888300"><ele></ele><time>2014-8-8T9:17:48Z</time></trkpt>
<trkpt lat="43.18725000" lon="0.31938300"><ele></ele><time>2014-8-8T9:17:51Z</time></trkpt>
<trkpt lat="43.18736700" lon="0.32096700"><ele></ele><time>2014-8-8T9:17:54Z</time></trkpt>
<trkpt lat="43.18763300" lon="0.32155000"><ele></ele><time>2014-8-8T9:17:57Z</time></trkpt>
<trkpt lat="43.18751700" lon="0.32168300"><ele></ele><time>2014-8-8T9:18:0Z</time></trkpt>
<trkpt lat="43.18615000" lon="0.32240000"><ele></ele><time>2014-8-8T9:18:3Z</time></trkpt>
<trkpt lat="43.18578300" lon="0.32265000"><ele></ele><time>2014-8-8T9:18:6Z</time></trkpt>
<trkpt lat="43.18551700" lon="0.32306700"><ele></ele><time>2014-8-8T9:18:9Z</time></trkpt>
<trkpt lat="43.18526700" lon="0.32361700"><ele></ele><time>2014-8-8T9:18:12Z</time></trkpt>
<trkpt lat="43.18493300" lon="0.32356700"><ele></ele><time>2014-8-8T9:18:15Z</time></trkpt>
<trkpt lat="43.18438300" lon="0.32353300"><ele></ele><time>2014-8-8T9:18:18Z</time></trkpt>
<trkpt lat="43.18393300" lon="0.32343300"><ele></ele><time>2014-8-8T9:18:21Z</time></trkpt>
<trkpt lat="43.18348300" lon="0.32318300"><ele></ele><time>2014-8-8T9:18:24Z</time></trkpt>
<trkpt lat="43.18296700" lon="0.32281700"><ele></ele><time>2014-8-8T9:18:27Z</time></trkpt>
<trkpt lat="43.18263300" lon="0.32295000"><ele></ele><time>2014-8-8T9:18:30Z</time></trkpt>
<trkpt lat="43.18235000" lon="0.32301700"><ele></ele><time>2014-8-8T9:18:33Z</time></trkpt>
<trkpt lat="43.18163300" lon="0.32315000"><ele></ele><time>2014-8-8T9:18:36Z</time></trkpt>
<trkpt lat="43.18086700" lon="0.32301700"><ele></ele><time>2014-8-8T9:18:39Z</time></trkpt>
<trkpt lat="43.17975000" lon="0.32245000"><ele></ele><time>2014-8-8T9:18:42Z</time></trkpt>
<trkpt lat="43.17936700" lon="0.32211700"><ele></ele><time>2014-8-8T9:18:45Z</time></trkpt>
<trkpt lat="43.17808300" lon="0.32180000"><ele></ele><time>2014-8-8T9:18:48Z</time></trkpt>
<trkpt lat="43.17698300" lon="0.32095000"><ele></ele><time>2014-8-8T9:18:51Z</time></trkpt>
<trkpt lat="43.17608300" lon="0.32090000"><ele></ele><time>2014-8-8T9:18:54Z</time></trkpt>
<trkpt lat="43.17466700" lon="0.32078300"><ele></ele><time>2014-8-8T9:18:57Z</time></trkpt>
<trkpt lat="43.17440000" lon="0.32075000"><ele></ele><time>2014-8-8T9:19:0Z</time></trkpt>
<trkpt lat="43.17418300" lon="0.32038300"><ele></ele><time>2014-8-8T9:19:3Z</time></trkpt>
<trkpt lat="43.17381700" lon="0.31971700"><ele></ele><time>2014-8-8T9:19:6Z</time></trkpt>
<trkpt lat="43.17366700" lon="0.31975000"><ele></ele><time>2014-8-8T9:19:9Z</time></trkpt>
<trkpt lat="43.17371700" lon="0.31995000"><ele></ele><time>2014-8-8T9:19:12Z</time></trkpt>
<trkpt lat="43.17361700" lon="0.32016700"><ele></ele><time>2014-8-8T9:19:15Z</time></trkpt>
<trkpt lat="43.17140000" lon="0.31921700"><ele></ele><time>2014-8-8T9:19:18Z</time></trkpt>
<trkpt lat="43.17103300" lon="0.31910000"><ele></ele><time>2014-8-8T9:19:21Z</time></trkpt>
<trkpt lat="43.17073300" lon="0.31890000"><ele></ele><time>2014-8-8T9:19:24Z</time></trkpt>
<trkpt lat="43.17048300" lon="0.31863300"><ele></ele><time>2014-8-8T9:19:27Z</time></trkpt>
<trkpt lat="43.17010000" lon="0.31793300"><ele></ele><time>2014-8-8T9:19:30Z</time></trkpt>
<trkpt lat="43.16766700" lon="0.31826700"><ele></ele><time>2014-8-8T9:19:33Z</time></trkpt>
<trkpt lat="43.16683300" lon="0.31866700"><ele></ele><time>2014-8-8T9:19:36Z</time></trkpt>
<trkpt lat="43.16436700" lon="0.32030000"><ele></ele><time>2014-8-8T9:19:39Z</time></trkpt>
<trkpt lat="43.16358300" lon="0.32095000"><ele></ele><time>2014-8-8T9:19:42Z</time></trkpt>
<trkpt lat="43.15993300" lon="0.32293300"><ele></ele><time>2014-8-8T9:19:45Z</time></trkpt>
<trkpt lat="43.15935000" lon="0.32333300"><ele></ele><time>2014-8-8T9:19:48Z</time></trkpt>
<trkpt lat="43.15758300" lon="0.32390000"><ele></ele><time>2014-8-8T9:19:51Z</time></trkpt>
<trkpt lat="43.15721700" lon="0.32415000"><ele></ele><time>2014-8-8T9:19:54Z</time></trkpt>
<trkpt lat="43.15671700" lon="0.32455000"><ele></ele><time>2014-8-8T9:19:57Z</time></trkpt>
<trkpt lat="43.15578300" lon="0.32493300"><ele></ele><time>2014-8-8T9:20:0Z</time></trkpt>
<trkpt lat="43.15536700" lon="0.32513300"><ele></ele><time>2014-8-8T9:20:3Z</time></trkpt>
<trkpt lat="43.15518300" lon="0.32525000"><ele></ele><time>2014-8-8T9:20:6Z</time></trkpt>
<trkpt lat="43.15496700" lon="0.32575000"><ele></ele><time>2014-8-8T9:20:9Z</time></trkpt>
<trkpt lat="43.15501700" lon="0.32610000"><ele></ele><time>2014-8-8T9:20:12Z</time></trkpt>
<trkpt lat="43.15518300" lon="0.32683300"><ele></ele><time>2014-8-8T9:20:15Z</time></trkpt>
<trkpt lat="43.15526700" lon="0.32736700"><ele></ele><time>2014-8-8T9:20:18Z</time></trkpt>
<trkpt lat="43.15491700" lon="0.32745000"><ele></ele><time>2014-8-8T9:20:21Z</time></trkpt>
<trkpt lat="43.15396700" lon="0.32771700"><ele></ele><time>2014-8-8T9:20:24Z</time></trkpt>
<trkpt lat="43.15295000" lon="0.32740000"><ele></ele><time>2014-8-8T9:20:27Z</time></trkpt>
<trkpt lat="43.15231700" lon="0.32758300"><ele></ele><time>2014-8-8T9:20:30Z</time></trkpt>
<trkpt lat="43.14808300" lon="0.32928300"><ele></ele><time>2014-8-8T9:20:33Z</time></trkpt>
<trkpt lat="43.14713300" lon="0.32931700"><ele></ele><time>2014-8-8T9:20:36Z</time></trkpt>
<trkpt lat="43.14328300" lon="0.32845000"><ele></ele><time>2014-8-8T9:20:39Z</time></trkpt>
<trkpt lat="43.14213300" lon="0.32831700"><ele></ele><time>2014-8-8T9:20:42Z</time></trkpt>
<trkpt lat="43.14140000" lon="0.33391700"><ele></ele><time>2014-8-8T9:20:45Z</time></trkpt>
<trkpt lat="43.14068300" lon="0.33473300"><ele></ele><time>2014-8-8T9:20:48Z</time></trkpt>
<trkpt lat="43.14056700" lon="0.33501700"><ele></ele><time>2014-8-8T9:20:51Z</time></trkpt>
<trkpt lat="43.14021700" lon="0.33520000"><ele></ele><time>2014-8-8T9:20:54Z</time></trkpt>
<trkpt lat="43.13988300" lon="0.33516700"><ele></ele><time>2014-8-8T9:20:57Z</time></trkpt>
<trkpt lat="43.13925000" lon="0.33510000"><ele></ele><time>2014-8-8T9:21:0Z</time></trkpt>
<trkpt lat="43.13893300" lon="0.33510000"><ele></ele><time>2014-8-8T9:21:3Z</time></trkpt>
<trkpt lat="43.13873300" lon="0.33506700"><ele></ele><time>2014-8-8T9:21:6Z</time></trkpt>
<trkpt lat="43.13786700" lon="0.33505000"><ele></ele><time>2014-8-8T9:21:9Z</time></trkpt>
<trkpt lat="43.13756700" lon="0.33493300"><ele></ele><time>2014-8-8T9:21:12Z</time></trkpt>
<trkpt lat="43.13728300" lon="0.33463300"><ele></ele><time>2014-8-8T9:21:15Z</time></trkpt>
<trkpt lat="43.13713300" lon="0.33450000"><ele></ele><time>2014-8-8T9:21:18Z</time></trkpt>
<trkpt lat="43.13678300" lon="0.33443300"><ele></ele><time>2014-8-8T9:21:21Z</time></trkpt>
<trkpt lat="43.13631700" lon="0.33428300"><ele></ele><time>2014-8-8T9:21:24Z</time></trkpt>
<trkpt lat="43.13598300" lon="0.33418300"><ele></ele><time>2014-8-8T9:21:27Z</time></trkpt>
<trkpt lat="43.13545000" lon="0.33395000"><ele></ele><time>2014-8-8T9:21:30Z</time></trkpt>
<trkpt lat="43.13490000" lon="0.33363300"><ele></ele><time>2014-8-8T9:21:33Z</time></trkpt>
<trkpt lat="43.13456700" lon="0.33328300"><ele></ele><time>2014-8-8T9:21:36Z</time></trkpt>
<trkpt lat="43.13438300" lon="0.33291700"><ele></ele><time>2014-8-8T9:21:39Z</time></trkpt>
<trkpt lat="43.13450000" lon="0.33255000"><ele></ele><time>2014-8-8T9:21:42Z</time></trkpt>
<trkpt lat="43.13463300" lon="0.33210000"><ele></ele><time>2014-8-8T9:21:45Z</time></trkpt>
<trkpt lat="43.13473300" lon="0.33131700"><ele></ele><time>2014-8-8T9:21:48Z</time></trkpt>
<trkpt lat="43.13470000" lon="0.33088300"><ele></ele><time>2014-8-8T9:21:51Z</time></trkpt>
<trkpt lat="43.13483300" lon="0.33061700"><ele></ele><time>2014-8-8T9:21:54Z</time></trkpt>
<trkpt lat="43.13510000" lon="0.33036700"><ele></ele><time>2014-8-8T9:21:57Z</time></trkpt>
<trkpt lat="43.13530000" lon="0.33023300"><ele></ele><time>2014-8-8T9:22:0Z</time></trkpt>
<trkpt lat="43.13566700" lon="0.33020000"><ele></ele><time>2014-8-8T9:22:3Z</time></trkpt>
<trkpt lat="43.13698300" lon="0.32981700"><ele></ele><time>2014-8-8T9:22:6Z</time></trkpt>
<trkpt lat="43.13706700" lon="0.32948300"><ele></ele><time>2014-8-8T9:22:9Z</time></trkpt>
<trkpt lat="43.13700000" lon="0.32888300"><ele></ele><time>2014-8-8T9:22:12Z</time></trkpt>
<trkpt lat="43.13693300" lon="0.32850000"><ele></ele><time>2014-8-8T9:22:15Z</time></trkpt>
<trkpt lat="43.13663300" lon="0.32826700"><ele></ele><time>2014-8-8T9:22:18Z</time></trkpt>
<trkpt lat="43.13553300" lon="0.32815000"><ele></ele><time>2014-8-8T9:22:21Z</time></trkpt>
<trkpt lat="43.13156700" lon="0.32908300"><ele></ele><time>2014-8-8T9:22:24Z</time></trkpt>
<trkpt lat="43.13123300" lon="0.32928300"><ele></ele><time>2014-8-8T9:22:27Z</time></trkpt>
<trkpt lat="43.13058300" lon="0.32955000"><ele></ele><time>2014-8-8T9:22:30Z</time></trkpt>
<trkpt lat="43.13061700" lon="0.33006700"><ele></ele><time>2014-8-8T9:22:33Z</time></trkpt>
<trkpt lat="43.13045000" lon="0.33051700"><ele></ele><time>2014-8-8T9:22:36Z</time></trkpt>
<trkpt lat="43.12933300" lon="0.33145000"><ele></ele><time>2014-8-8T9:22:39Z</time></trkpt>
<trkpt lat="43.12920000" lon="0.33158300"><ele></ele><time>2014-8-8T9:22:42Z</time></trkpt>
<trkpt lat="43.12871700" lon="0.33218300"><ele></ele><time>2014-8-8T9:22:45Z</time></trkpt>
<trkpt lat="43.12791700" lon="0.33263300"><ele></ele><time>2014-8-8T9:22:48Z</time></trkpt>
<trkpt lat="43.12651700" lon="0.33240000"><ele></ele><time>2014-8-8T9:22:51Z</time></trkpt>
<trkpt lat="43.12626700" lon="0.33240000"><ele></ele><time>2014-8-8T9:22:54Z</time></trkpt>
<trkpt lat="43.12616700" lon="0.33203300"><ele></ele><time>2014-8-8T9:22:57Z</time></trkpt>
<trkpt lat="43.12601700" lon="0.33131700"><ele></ele><time>2014-8-8T9:23:0Z</time></trkpt>
<trkpt lat="43.12578300" lon="0.33018300"><ele></ele><time>2014-8-8T9:23:3Z</time></trkpt>
<trkpt lat="43.12481700" lon="0.33091700"><ele></ele><time>2014-8-8T9:23:6Z</time></trkpt>
<trkpt lat="43.12495000" lon="0.33191700"><ele></ele><time>2014-8-8T9:23:9Z</time></trkpt>
<trkpt lat="43.12298300" lon="0.33293300"><ele></ele><time>2014-8-8T9:23:12Z</time></trkpt>
<trkpt lat="43.12256700" lon="0.33303300"><ele></ele><time>2014-8-8T9:23:15Z</time></trkpt>
<trkpt lat="43.12220000" lon="0.33331700"><ele></ele><time>2014-8-8T9:23:18Z</time></trkpt>
<trkpt lat="43.12171700" lon="0.33255000"><ele></ele><time>2014-8-8T9:23:21Z</time></trkpt>
<trkpt lat="43.11766700" lon="0.33680000"><ele></ele><time>2014-8-8T9:23:24Z</time></trkpt>
<trkpt lat="43.11721700" lon="0.33736700"><ele></ele><time>2014-8-8T9:23:27Z</time></trkpt>
<trkpt lat="43.11673300" lon="0.33791700"><ele></ele><time>2014-8-8T9:23:30Z</time></trkpt>
<trkpt lat="43.11295000" lon="0.34200000"><ele></ele><time>2014-8-8T9:23:33Z</time></trkpt>
<trkpt lat="43.11188300" lon="0.34316700"><ele></ele><time>2014-8-8T9:23:36Z</time></trkpt>
<trkpt lat="43.11180000" lon="0.34350000"><ele></ele><time>2014-8-8T9:23:39Z</time></trkpt>
<trkpt lat="43.11188300" lon="0.34413300"><ele></ele><time>2014-8-8T9:23:42Z</time></trkpt>
<trkpt lat="43.11176700" lon="0.34428300"><ele></ele><time>2014-8-8T9:23:45Z</time></trkpt>
<trkpt lat="43.11211700" lon="0.34470000"><ele></ele><time>2014-8-8T9:23:48Z</time></trkpt>
<trkpt lat="43.11235000" lon="0.34506700"><ele></ele><time>2014-8-8T9:23:51Z</time></trkpt>
<trkpt lat="43.11250000" lon="0.34523300"><ele></ele><time>2014-8-8T9:23:54Z</time></trkpt>
<trkpt lat="43.11265000" lon="0.34550000"><ele></ele><time>2014-8-8T9:23:57Z</time></trkpt>
<trkpt lat="43.11290000" lon="0.34586700"><ele></ele><time>2014-8-8T9:24:0Z</time></trkpt>
<trkpt lat="43.11303300" lon="0.34601700"><ele></ele><time>2014-8-8T9:24:3Z</time></trkpt>
<trkpt lat="43.11320000" lon="0.34616700"><ele></ele><time>2014-8-8T9:24:6Z</time></trkpt>
<trkpt lat="43.11355000" lon="0.34655000"><ele></ele><time>2014-8-8T9:24:9Z</time></trkpt>
<trkpt lat="43.11383300" lon="0.34671700"><ele></ele><time>2014-8-8T9:24:12Z</time></trkpt>
<trkpt lat="43.11403300" lon="0.34681700"><ele></ele><time>2014-8-8T9:24:15Z</time></trkpt>
<trkpt lat="43.11425000" lon="0.34686700"><ele></ele><time>2014-8-8T9:24:18Z</time></trkpt>
<trkpt lat="43.11453300" lon="0.34695000"><ele></ele><time>2014-8-8T9:24:21Z</time></trkpt>
<trkpt lat="43.11483300" lon="0.34705000"><ele></ele><time>2014-8-8T9:24:24Z</time></trkpt>
<trkpt lat="43.11515000" lon="0.34698300"><ele></ele><time>2014-8-8T9:24:27Z</time></trkpt>
<trkpt lat="43.11523300" lon="0.34725000"><ele></ele><time>2014-8-8T9:24:30Z</time></trkpt>
<trkpt lat="43.11545000" lon="0.34748300"><ele></ele><time>2014-8-8T9:24:33Z</time></trkpt>
<trkpt lat="43.11563300" lon="0.34768300"><ele></ele><time>2014-8-8T9:24:36Z</time></trkpt>
<trkpt lat="43.11555000" lon="0.34801700"><ele></ele><time>2014-8-8T9:24:39Z</time></trkpt>
<trkpt lat="43.11551700" lon="0.34831700"><ele></ele><time>2014-8-8T9:24:42Z</time></trkpt>
<trkpt lat="43.11555000" lon="0.34858300"><ele></ele><time>2014-8-8T9:24:45Z</time></trkpt>
<trkpt lat="43.11538300" lon="0.34883300"><ele></ele><time>2014-8-8T9:24:48Z</time></trkpt>
<trkpt lat="43.11513300" lon="0.34913300"><ele></ele><time>2014-8-8T9:24:51Z</time></trkpt>
<trkpt lat="43.11493300" lon="0.34925000"><ele></ele><time>2014-8-8T9:24:54Z</time></trkpt>
<trkpt lat="43.11483300" lon="0.34950000"><ele></ele><time>2014-8-8T9:24:57Z</time></trkpt>
<trkpt lat="43.11483300" lon="0.34976700"><ele></ele><time>2014-8-8T9:25:0Z</time></trkpt>
<trkpt lat="43.11533300" lon="0.35045000"><ele></ele><time>2014-8-8T9:25:3Z</time></trkpt>
<trkpt lat="43.11541700" lon="0.35083300"><ele></ele><time>2014-8-8T9:25:6Z</time></trkpt>
<trkpt lat="43.11540000" lon="0.35116700"><ele></ele><time>2014-8-8T9:25:9Z</time></trkpt>
<trkpt lat="43.11546700" lon="0.35180000"><ele></ele><time>2014-8-8T9:25:12Z</time></trkpt>
<trkpt lat="43.11546700" lon="0.35210000"><ele></ele><time>2014-8-8T9:25:15Z</time></trkpt>
<trkpt lat="43.11556700" lon="0.35256700"><ele></ele><time>2014-8-8T9:25:18Z</time></trkpt>
<trkpt lat="43.11561700" lon="0.35298300"><ele></ele><time>2014-8-8T9:25:21Z</time></trkpt>
<trkpt lat="43.11593300" lon="0.35341700"><ele></ele><time>2014-8-8T9:25:24Z</time></trkpt>
<trkpt lat="43.11615000" lon="0.35345000"><ele></ele><time>2014-8-8T9:25:27Z</time></trkpt>
<trkpt lat="43.11638300" lon="0.35341700"><ele></ele><time>2014-8-8T9:25:30Z</time></trkpt>
<trkpt lat="43.11666700" lon="0.35315000"><ele></ele><time>2014-8-8T9:25:33Z</time></trkpt>
<trkpt lat="43.11778300" lon="0.35033300"><ele></ele><time>2014-8-8T9:25:36Z</time></trkpt>
<trkpt lat="43.11786700" lon="0.35010000"><ele></ele><time>2014-8-8T9:25:39Z</time></trkpt>
<trkpt lat="43.11840000" lon="0.35025000"><ele></ele><time>2014-8-8T9:25:42Z</time></trkpt>
<trkpt lat="43.11863300" lon="0.35045000"><ele></ele><time>2014-8-8T9:25:45Z</time></trkpt>
<trkpt lat="43.11941700" lon="0.35033300"><ele></ele><time>2014-8-8T9:25:48Z</time></trkpt>
<trkpt lat="43.12056700" lon="0.35018300"><ele></ele><time>2014-8-8T9:25:51Z</time></trkpt>
<trkpt lat="43.12088300" lon="0.35018300"><ele></ele><time>2014-8-8T9:25:54Z</time></trkpt>
<trkpt lat="43.12126700" lon="0.34998300"><ele></ele><time>2014-8-8T9:25:57Z</time></trkpt>
<trkpt lat="43.12146700" lon="0.35000000"><ele></ele><time>2014-8-8T9:26:0Z</time></trkpt>
<trkpt lat="43.12150000" lon="0.35036700"><ele></ele><time>2014-8-8T9:26:3Z</time></trkpt>
<trkpt lat="43.12173300" lon="0.35138300"><ele></ele><time>2014-8-8T9:26:6Z</time></trkpt>
<trkpt lat="43.12195000" lon="0.35190000"><ele></ele><time>2014-8-8T9:26:9Z</time></trkpt>
<trkpt lat="43.12225000" lon="0.35218300"><ele></ele><time>2014-8-8T9:26:12Z</time></trkpt>
<trkpt lat="43.12291700" lon="0.35061700"><ele></ele><time>2014-8-8T9:26:15Z</time></trkpt>
<trkpt lat="43.12421700" lon="0.34811700"><ele></ele><time>2014-8-8T9:26:18Z</time></trkpt>
<trkpt lat="43.12471700" lon="0.34670000"><ele></ele><time>2014-8-8T9:26:21Z</time></trkpt>
<trkpt lat="43.12516700" lon="0.34626700"><ele></ele><time>2014-8-8T9:26:24Z</time></trkpt>
<trkpt lat="43.12535000" lon="0.34630000"><ele></ele><time>2014-8-8T9:26:27Z</time></trkpt>
<trkpt lat="43.12523300" lon="0.34813300"><ele></ele><time>2014-8-8T9:26:30Z</time></trkpt>
<trkpt lat="43.12468300" lon="0.35046700"><ele></ele><time>2014-8-8T9:26:33Z</time></trkpt>
<trkpt lat="43.12466700" lon="0.35473300"><ele></ele><time>2014-8-8T9:26:36Z</time></trkpt>
<trkpt lat="43.12475000" lon="0.35491700"><ele></ele><time>2014-8-8T9:26:39Z</time></trkpt>
<trkpt lat="43.12635000" lon="0.35445000"><ele></ele><time>2014-8-8T9:26:42Z</time></trkpt>
<trkpt lat="43.12710000" lon="0.35375000"><ele></ele><time>2014-8-8T9:26:45Z</time></trkpt>
<trkpt lat="43.12743300" lon="0.35388300"><ele></ele><time>2014-8-8T9:26:48Z</time></trkpt>
<trkpt lat="43.12871700" lon="0.35368300"><ele></ele><time>2014-8-8T9:26:51Z</time></trkpt>
<trkpt lat="43.13706700" lon="0.35318300"><ele></ele><time>2014-8-8T9:26:54Z</time></trkpt>
<trkpt lat="43.13890000" lon="0.35423300"><ele></ele><time>2014-8-8T9:26:57Z</time></trkpt>
<trkpt lat="43.13911700" lon="0.35410000"><ele></ele><time>2014-8-8T9:27:0Z</time></trkpt>
<trkpt lat="43.13981700" lon="0.35133300"><ele></ele><time>2014-8-8T9:27:3Z</time></trkpt>
<trkpt lat="43.14361700" lon="0.35213300"><ele></ele><time>2014-8-8T9:27:6Z</time></trkpt>
<trkpt lat="43.14468300" lon="0.35221700"><ele></ele><time>2014-8-8T9:27:9Z</time></trkpt>
<trkpt lat="43.14506700" lon="0.35160000"><ele></ele><time>2014-8-8T9:27:12Z</time></trkpt>
<trkpt lat="43.14598300" lon="0.34920000"><ele></ele><time>2014-8-8T9:27:15Z</time></trkpt>
<trkpt lat="43.14606700" lon="0.34836700"><ele></ele><time>2014-8-8T9:27:18Z</time></trkpt>
<trkpt lat="43.14596700" lon="0.34766700"><ele></ele><time>2014-8-8T9:27:21Z</time></trkpt>
<trkpt lat="43.14605000" lon="0.34700000"><ele></ele><time>2014-8-8T9:27:24Z</time></trkpt>
<trkpt lat="43.14601700" lon="0.34623300"><ele></ele><time>2014-8-8T9:27:27Z</time></trkpt>
<trkpt lat="43.14610000" lon="0.34541700"><ele></ele><time>2014-8-8T9:27:30Z</time></trkpt>
<trkpt lat="43.14625000" lon="0.34458300"><ele></ele><time>2014-8-8T9:27:33Z</time></trkpt>
<trkpt lat="43.14806700" lon="0.34315000"><ele></ele><time>2014-8-8T9:27:36Z</time></trkpt>
<trkpt lat="43.14836700" lon="0.34283300"><ele></ele><time>2014-8-8T9:27:39Z</time></trkpt>
<trkpt lat="43.14861700" lon="0.34251700"><ele></ele><time>2014-8-8T9:27:42Z</time></trkpt>
<trkpt lat="43.15070000" lon="0.34171700"><ele></ele><time>2014-8-8T9:27:45Z</time></trkpt>
<trkpt lat="43.15088300" lon="0.34138300"><ele></ele><time>2014-8-8T9:27:48Z</time></trkpt>
<trkpt lat="43.15096700" lon="0.34118300"><ele></ele><time>2014-8-8T9:27:51Z</time></trkpt>
<trkpt lat="43.15121700" lon="0.34106700"><ele></ele><time>2014-8-8T9:27:54Z</time></trkpt>
<trkpt lat="43.15135000" lon="0.34056700"><ele></ele><time>2014-8-8T9:27:57Z</time></trkpt>
<trkpt lat="43.15146700" lon="0.34031700"><ele></ele><time>2014-8-8T9:28:0Z</time></trkpt>
<trkpt lat="43.15171700" lon="0.34006700"><ele></ele><time>2014-8-8T9:28:3Z</time></trkpt>
<trkpt lat="43.15166700" lon="0.33986700"><ele></ele><time>2014-8-8T9:28:6Z</time></trkpt>
<trkpt lat="43.15181700" lon="0.33965000"><ele></ele><time>2014-8-8T9:28:9Z</time></trkpt>
<trkpt lat="43.15198300" lon="0.33955000"><ele></ele><time>2014-8-8T9:28:12Z</time></trkpt>
<trkpt lat="43.15210000" lon="0.33983300"><ele></ele><time>2014-8-8T9:28:15Z</time></trkpt>
<trkpt lat="43.15225000" lon="0.33996700"><ele></ele><time>2014-8-8T9:28:18Z</time></trkpt>
<trkpt lat="43.15238300" lon="0.33971700"><ele></ele><time>2014-8-8T9:28:21Z</time></trkpt>
<trkpt lat="43.15223300" lon="0.33946700"><ele></ele><time>2014-8-8T9:28:24Z</time></trkpt>
<trkpt lat="43.15226700" lon="0.33921700"><ele></ele><time>2014-8-8T9:28:27Z</time></trkpt>
<trkpt lat="43.15225000" lon="0.33895000"><ele></ele><time>2014-8-8T9:28:30Z</time></trkpt>
<trkpt lat="43.15205000" lon="0.33868300"><ele></ele><time>2014-8-8T9:28:33Z</time></trkpt>
<trkpt lat="43.15198300" lon="0.33850000"><ele></ele><time>2014-8-8T9:28:36Z</time></trkpt>
<trkpt lat="43.15181700" lon="0.33845000"><ele></ele><time>2014-8-8T9:28:39Z</time></trkpt>
<trkpt lat="43.15153300" lon="0.33840000"><ele></ele><time>2014-8-8T9:28:42Z</time></trkpt>
<trkpt lat="43.15133300" lon="0.33855000"><ele></ele><time>2014-8-8T9:28:45Z</time></trkpt>
<trkpt lat="43.15115000" lon="0.33853300"><ele></ele><time>2014-8-8T9:28:48Z</time></trkpt>
<trkpt lat="43.15078300" lon="0.33853300"><ele></ele><time>2014-8-8T9:28:51Z</time></trkpt>
<trkpt lat="43.15035000" lon="0.33845000"><ele></ele><time>2014-8-8T9:28:54Z</time></trkpt>
<trkpt lat="43.15001700" lon="0.33840000"><ele></ele><time>2014-8-8T9:28:57Z</time></trkpt>
<trkpt lat="43.14970000" lon="0.33846700"><ele></ele><time>2014-8-8T9:29:0Z</time></trkpt>
<trkpt lat="43.14941700" lon="0.33855000"><ele></ele><time>2014-8-8T9:29:3Z</time></trkpt>
<trkpt lat="43.14905000" lon="0.33858300"><ele></ele><time>2014-8-8T9:29:6Z</time></trkpt>
<trkpt lat="43.14866700" lon="0.33868300"><ele></ele><time>2014-8-8T9:29:9Z</time></trkpt>
<trkpt lat="43.14840000" lon="0.33878300"><ele></ele><time>2014-8-8T9:29:12Z</time></trkpt>
<trkpt lat="43.14810000" lon="0.33881700"><ele></ele><time>2014-8-8T9:29:15Z</time></trkpt>
<trkpt lat="43.14590000" lon="0.33960000"><ele></ele><time>2014-8-8T9:29:18Z</time></trkpt>
<trkpt lat="43.14535000" lon="0.33943300"><ele></ele><time>2014-8-8T9:29:21Z</time></trkpt>
<trkpt lat="43.14501700" lon="0.33926700"><ele></ele><time>2014-8-8T9:29:24Z</time></trkpt>
<trkpt lat="43.14473300" lon="0.33918300"><ele></ele><time>2014-8-8T9:29:27Z</time></trkpt>
<trkpt lat="43.14455000" lon="0.33888300"><ele></ele><time>2014-8-8T9:29:30Z</time></trkpt>
<trkpt lat="43.14431700" lon="0.33873300"><ele></ele><time>2014-8-8T9:29:33Z</time></trkpt>
<trkpt lat="43.14396700" lon="0.33855000"><ele></ele><time>2014-8-8T9:29:36Z</time></trkpt>
<trkpt lat="43.14383300" lon="0.33845000"><ele></ele><time>2014-8-8T9:29:39Z</time></trkpt>
<trkpt lat="43.14356700" lon="0.33855000"><ele></ele><time>2014-8-8T9:29:42Z</time></trkpt>
<trkpt lat="43.14341700" lon="0.33841700"><ele></ele><time>2014-8-8T9:29:45Z</time></trkpt>
<trkpt lat="43.14320000" lon="0.33833300"><ele></ele><time>2014-8-8T9:29:48Z</time></trkpt>
<trkpt lat="43.14308300" lon="0.33820000"><ele></ele><time>2014-8-8T9:29:51Z</time></trkpt>
<trkpt lat="43.14290000" lon="0.33798300"><ele></ele><time>2014-8-8T9:29:54Z</time></trkpt>
<trkpt lat="43.14268300" lon="0.33761700"><ele></ele><time>2014-8-8T9:29:57Z</time></trkpt>
<trkpt lat="43.14256700" lon="0.33721700"><ele></ele><time>2014-8-8T9:30:0Z</time></trkpt>
<trkpt lat="43.14245000" lon="0.33680000"><ele></ele><time>2014-8-8T9:30:3Z</time></trkpt>
<trkpt lat="43.14260000" lon="0.33651700"><ele></ele><time>2014-8-8T9:30:6Z</time></trkpt>
<trkpt lat="43.14283300" lon="0.33640000"><ele></ele><time>2014-8-8T9:30:9Z</time></trkpt>
<trkpt lat="43.14300000" lon="0.33633300"><ele></ele><time>2014-8-8T9:30:12Z</time></trkpt>
<trkpt lat="43.14316700" lon="0.33641700"><ele></ele><time>2014-8-8T9:30:15Z</time></trkpt>
<trkpt lat="43.14331700" lon="0.33666700"><ele></ele><time>2014-8-8T9:30:18Z</time></trkpt>
<trkpt lat="43.14353300" lon="0.33683300"><ele></ele><time>2014-8-8T9:30:21Z</time></trkpt>
<trkpt lat="43.14380000" lon="0.33718300"><ele></ele><time>2014-8-8T9:30:24Z</time></trkpt>
<trkpt lat="43.14420000" lon="0.33731700"><ele></ele><time>2014-8-8T9:30:27Z</time></trkpt>
<trkpt lat="43.14446700" lon="0.33738300"><ele></ele><time>2014-8-8T9:30:30Z</time></trkpt>
<trkpt lat="43.14490000" lon="0.33725000"><ele></ele><time>2014-8-8T9:30:33Z</time></trkpt>
<trkpt lat="43.14540000" lon="0.33711700"><ele></ele><time>2014-8-8T9:30:36Z</time></trkpt>
<trkpt lat="43.14568300" lon="0.33705000"><ele></ele><time>2014-8-8T9:30:39Z</time></trkpt>
<trkpt lat="43.14586700" lon="0.33685000"><ele></ele><time>2014-8-8T9:30:42Z</time></trkpt>
<trkpt lat="43.14591700" lon="0.33651700"><ele></ele><time>2014-8-8T9:30:45Z</time></trkpt>
<trkpt lat="43.14598300" lon="0.33620000"><ele></ele><time>2014-8-8T9:30:48Z</time></trkpt>
<trkpt lat="43.14598300" lon="0.33593300"><ele></ele><time>2014-8-8T9:30:51Z</time></trkpt>
<trkpt lat="43.14598300" lon="0.33566700"><ele></ele><time>2014-8-8T9:30:54Z</time></trkpt>
<trkpt lat="43.14598300" lon="0.33538300"><ele></ele><time>2014-8-8T9:30:57Z</time></trkpt>
<trkpt lat="43.14593300" lon="0.33503300"><ele></ele><time>2014-8-8T9:31:0Z</time></trkpt>
<trkpt lat="43.14590000" lon="0.33473300"><ele></ele><time>2014-8-8T9:31:3Z</time></trkpt>
<trkpt lat="43.14583300" lon="0.33443300"><ele></ele><time>2014-8-8T9:31:6Z</time></trkpt>
<trkpt lat="43.14568300" lon="0.33408300"><ele></ele><time>2014-8-8T9:31:9Z</time></trkpt>
<trkpt lat="43.14548300" lon="0.33365000"><ele></ele><time>2014-8-8T9:31:12Z</time></trkpt>
<trkpt lat="43.14536700" lon="0.33345000"><ele></ele><time>2014-8-8T9:31:15Z</time></trkpt>
<trkpt lat="43.14526700" lon="0.33316700"><ele></ele><time>2014-8-8T9:31:18Z</time></trkpt>
<trkpt lat="43.14525000" lon="0.33291700"><ele></ele><time>2014-8-8T9:31:21Z</time></trkpt>
<trkpt lat="43.14523300" lon="0.33263300"><ele></ele><time>2014-8-8T9:31:24Z</time></trkpt>
<trkpt lat="43.14540000" lon="0.33230000"><ele></ele><time>2014-8-8T9:31:27Z</time></trkpt>
<trkpt lat="43.14800000" lon="0.32963300"><ele></ele><time>2014-8-8T9:31:30Z</time></trkpt>
<trkpt lat="43.14765000" lon="0.32951700"><ele></ele><time>2014-8-8T9:31:33Z</time></trkpt>
<trkpt lat="43.14711700" lon="0.32946700"><ele></ele><time>2014-8-8T9:31:36Z</time></trkpt>
<trkpt lat="43.14568300" lon="0.32898300"><ele></ele><time>2014-8-8T9:31:39Z</time></trkpt>
<trkpt lat="43.14628300" lon="0.32340000"><ele></ele><time>2014-8-8T9:31:42Z</time></trkpt>
<trkpt lat="43.14621700" lon="0.32308300"><ele></ele><time>2014-8-8T9:31:45Z</time></trkpt>
<trkpt lat="43.14598300" lon="0.32291700"><ele></ele><time>2014-8-8T9:31:48Z</time></trkpt>
<trkpt lat="43.14700000" lon="0.32143300"><ele></ele><time>2014-8-8T9:31:51Z</time></trkpt>
<trkpt lat="43.15165000" lon="0.31980000"><ele></ele><time>2014-8-8T9:31:54Z</time></trkpt>
<trkpt lat="43.15206700" lon="0.31973300"><ele></ele><time>2014-8-8T9:31:57Z</time></trkpt>
<trkpt lat="43.15190000" lon="0.31900000"><ele></ele><time>2014-8-8T9:32:0Z</time></trkpt>
<trkpt lat="43.15148300" lon="0.31808300"><ele></ele><time>2014-8-8T9:32:3Z</time></trkpt>
<trkpt lat="43.15165000" lon="0.31651700"><ele></ele><time>2014-8-8T9:32:6Z</time></trkpt>
<trkpt lat="43.15196700" lon="0.31600000"><ele></ele><time>2014-8-8T9:32:9Z</time></trkpt>
<trkpt lat="43.15281700" lon="0.31540000"><ele></ele><time>2014-8-8T9:32:12Z</time></trkpt>
<trkpt lat="43.15585000" lon="0.31265000"><ele></ele><time>2014-8-8T9:32:15Z</time></trkpt>
<trkpt lat="43.15743300" lon="0.30905000"><ele></ele><time>2014-8-8T9:32:18Z</time></trkpt>
<trkpt lat="43.15776700" lon="0.30863300"><ele></ele><time>2014-8-8T9:32:21Z</time></trkpt>
<trkpt lat="43.15825000" lon="0.30781700"><ele></ele><time>2014-8-8T9:32:24Z</time></trkpt>
<trkpt lat="43.15885000" lon="0.30598300"><ele></ele><time>2014-8-8T9:32:27Z</time></trkpt>
<trkpt lat="43.15903300" lon="0.30470000"><ele></ele><time>2014-8-8T9:32:30Z</time></trkpt>
<trkpt lat="43.15890000" lon="0.30305000"><ele></ele><time>2014-8-8T9:32:33Z</time></trkpt>
<trkpt lat="43.15905000" lon="0.30265000"><ele></ele><time>2014-8-8T9:32:36Z</time></trkpt>
<trkpt lat="43.15916700" lon="0.30218300"><ele></ele><time>2014-8-8T9:32:39Z</time></trkpt>
<trkpt lat="43.15960000" lon="0.30016700"><ele></ele><time>2014-8-8T9:32:42Z</time></trkpt>
<trkpt lat="43.16038300" lon="0.29798300"><ele></ele><time>2014-8-8T9:32:45Z</time></trkpt>
<trkpt lat="43.16255000" lon="0.29461700"><ele></ele><time>2014-8-8T9:32:48Z</time></trkpt>
<trkpt lat="43.16251700" lon="0.29410000"><ele></ele><time>2014-8-8T9:32:51Z</time></trkpt>
<trkpt lat="43.16256700" lon="0.29385000"><ele></ele><time>2014-8-8T9:32:54Z</time></trkpt>
<trkpt lat="43.16255000" lon="0.29331700"><ele></ele><time>2014-8-8T9:32:57Z</time></trkpt>
<trkpt lat="43.16258300" lon="0.29305000"><ele></ele><time>2014-8-8T9:33:0Z</time></trkpt>
<trkpt lat="43.16255000" lon="0.29285000"><ele></ele><time>2014-8-8T9:33:3Z</time></trkpt>
<trkpt lat="43.16261700" lon="0.29255000"><ele></ele><time>2014-8-8T9:33:6Z</time></trkpt>
<trkpt lat="43.16270000" lon="0.29223300"><ele></ele><time>2014-8-8T9:33:9Z</time></trkpt>
<trkpt lat="43.16263300" lon="0.29178300"><ele></ele><time>2014-8-8T9:33:12Z</time></trkpt>
<trkpt lat="43.16271700" lon="0.29080000"><ele></ele><time>2014-8-8T9:33:15Z</time></trkpt>
<trkpt lat="43.16308300" lon="0.28908300"><ele></ele><time>2014-8-8T9:33:18Z</time></trkpt>
<trkpt lat="43.16335000" lon="0.28735000"><ele></ele><time>2014-8-8T9:33:21Z</time></trkpt>
<trkpt lat="43.16345000" lon="0.28691700"><ele></ele><time>2014-8-8T9:33:24Z</time></trkpt>
<trkpt lat="43.16341700" lon="0.28626700"><ele></ele><time>2014-8-8T9:33:27Z</time></trkpt>
<trkpt lat="43.16323300" lon="0.28540000"><ele></ele><time>2014-8-8T9:33:30Z</time></trkpt>
<trkpt lat="43.16315000" lon="0.28506700"><ele></ele><time>2014-8-8T9:33:33Z</time></trkpt>
<trkpt lat="43.16315000" lon="0.28483300"><ele></ele><time>2014-8-8T9:33:36Z</time></trkpt>
<trkpt lat="43.16350000" lon="0.28541700"><ele></ele><time>2014-8-8T9:33:39Z</time></trkpt>
<trkpt lat="43.16373300" lon="0.28555000"><ele></ele><time>2014-8-8T9:33:42Z</time></trkpt>
<trkpt lat="43.16396700" lon="0.28581700"><ele></ele><time>2014-8-8T9:33:45Z</time></trkpt>
<trkpt lat="43.16413300" lon="0.28631700"><ele></ele><time>2014-8-8T9:33:48Z</time></trkpt>
<trkpt lat="43.16428300" lon="0.28643300"><ele></ele><time>2014-8-8T9:33:51Z</time></trkpt>
<trkpt lat="43.16443300" lon="0.28598300"><ele></ele><time>2014-8-8T9:33:54Z</time></trkpt>
<trkpt lat="43.16450000" lon="0.28518300"><ele></ele><time>2014-8-8T9:33:57Z</time></trkpt>
<trkpt lat="43.16440000" lon="0.28445000"><ele></ele><time>2014-8-8T9:34:0Z</time></trkpt>
<trkpt lat="43.16428300" lon="0.28405000"><ele></ele><time>2014-8-8T9:34:3Z</time></trkpt>
<trkpt lat="43.16423300" lon="0.28358300"><ele></ele><time>2014-8-8T9:34:6Z</time></trkpt>
<trkpt lat="43.16415000" lon="0.28343300"><ele></ele><time>2014-8-8T9:34:9Z</time></trkpt>
<trkpt lat="43.16408300" lon="0.28303300"><ele></ele><time>2014-8-8T9:34:12Z</time></trkpt>
<trkpt lat="43.16365000" lon="0.28233300"><ele></ele><time>2014-8-8T9:34:15Z</time></trkpt>
<trkpt lat="43.16320000" lon="0.28211700"><ele></ele><time>2014-8-8T9:34:18Z</time></trkpt>
<trkpt lat="43.16278300" lon="0.28211700"><ele></ele><time>2014-8-8T9:34:21Z</time></trkpt>
<trkpt lat="43.16258300" lon="0.28215000"><ele></ele><time>2014-8-8T9:34:24Z</time></trkpt>
<trkpt lat="43.16271700" lon="0.28183300"><ele></ele><time>2014-8-8T9:34:27Z</time></trkpt>
<trkpt lat="43.16281700" lon="0.28118300"><ele></ele><time>2014-8-8T9:34:30Z</time></trkpt>
<trkpt lat="43.16320000" lon="0.27980000"><ele></ele><time>2014-8-8T9:34:33Z</time></trkpt>
<trkpt lat="43.16320000" lon="0.27931700"><ele></ele><time>2014-8-8T9:34:36Z</time></trkpt>
</trkseg></trk></gpx>